aviador You're here:

KVLD Decoded Metar

VALDOSTA REGIONA in GA, USA
Report Time2018-05-21 17:53:00
UTC Time2018-05-21 18:35:45
Flight Rules vfr VFR
Wind150° at 12 Gusting to 18 kt
W.Decomp.*RWY 17: 11.6 kt HW 3.1 kt LCW
RWY 13: 10.9 kt HW 5.1 kt RCW
RWY 22: 5.1 kt HW 10.9 kt LCW
W.Rank150° ranks 19
Current wind is above 150° avg. (5.5)
Visibility9999 m
Phenomena:N/A
Clouds:Broken 050 Hf
Broken 060 Hf
Expected CloudBase > 2,400 ft AGL from Temp-Dew spread
Ceiling5,000 ft
Temp27°C (ISA +12)
Dew Point21°C (70% RH)
Heat Index28.9°C
AAT26.9°C
QNH1019 hPa
Density Alt1,759 ft
Elevation203 ft
Report Wrong Elevation
Raw Report
METAR KVLD 211753Z 15012G18KT 10SM BKN050 BKN060 27/21 A3008 RMK AO2
SLP193 60000 T02670211 10267 20222 58011=

Extra information for KVLD:More info

Metar Taf Metar & Taf Last 4 Metars F.Rules Stats Wind Profile Meteogram Temp Stats Airport Information Weather charts Add Link Nearby VenuesMetar ALERT Operation Metar Decoded Social comments

AIRNAV info for KVLD
True Flight Aerospace